Time;durP1;ratioP1;P1;durP2;ratioP2;P2;SDS_P1;SDS_P2;PMS_P1;PMS_P2;Temp;Humidity;BMP_temperature;BMP_pressure;BME280_temperature;BME280_humidity;BME280_pressure;Samples;Min_cycle;Max_cycle;Signal;HPM_P1;HPM_P2
2023/09/27 00:00:09;;;;;;;;;;;;;;;23.88;41.64;101354.41;7398869;19;1669;-37
2023/09/27 00:02:37;;;;;;;;;;;;;;;23.77;41.48;101367.13;7398205;19;1509;-37
2023/09/27 00:05:07;;;;;;;;;;;;;;;23.82;41.49;101367.53;7398475;19;1518;-37
2023/09/27 00:07:35;;;;;;;;;;;;;;;23.77;41.76;101363.53;7399839;19;1343;-37
2023/09/27 00:10:04;;;;;;;;;;;;;;;23.88;41.39;101360.66;7399283;19;1859;-37
2023/09/27 00:12:32;;;;;;;;;;;;;;;23.93;41.26;101360.19;7396873;19;1403;-37
2023/09/27 00:15:01;;;;;;;;;;;;;;;23.88;41.34;101354.41;7397763;19;1415;-37
2023/09/27 00:17:33;;;;;;;;;;;;;;;23.79;41.38;101354.31;7398573;19;1467;-37
2023/09/27 00:20:02;;;;;;;;;;;;;;;23.80;41.52;101342.53;7399420;19;1407;-37
2023/09/27 00:22:31;;;;;;;;;;;;;;;23.81;41.42;101344.22;7398077;19;1798;-37
2023/09/27 00:24:59;;;;;;;;;;;;;;;23.78;41.64;101340.97;7399251;19;1337;-37
2023/09/27 00:27:27;;;;;;;;;;;;;;;23.82;41.39;101345.91;7400153;19;1101;-37
2023/09/27 00:29:56;;;;;;;;;;;;;;;23.68;41.75;101348.28;7397435;19;1712;-37
2023/09/27 00:32:24;;;;;;;;;;;;;;;23.72;41.52;101338.88;7395555;19;1849;-37
2023/09/27 00:34:55;;;;;;;;;;;;;;;23.56;41.95;101345.78;7398565;19;1662;-37
2023/09/27 00:37:23;;;;;;;;;;;;;;;23.34;42.11;101340.81;7399206;19;1668;-37
2023/09/27 00:39:52;;;;;;;;;;;;;;;23.32;42.08;101349.03;7398911;19;1543;-37
2023/09/27 00:42:20;;;;;;;;;;;;;;;23.30;42.33;101339.38;7399173;19;1675;-37
2023/09/27 00:44:48;;;;;;;;;;;;;;;23.38;42.12;101332.25;7398578;19;1450;-37
2023/09/27 00:47:17;;;;;;;;;;;;;;;23.28;42.05;101336.84;7398427;19;1492;-37
2023/09/27 00:49:46;;;;;;;;;;;;;;;23.42;42.00;101336.34;7397222;19;1435;-37
2023/09/27 00:52:17;;;;;;;;;;;;;;;23.38;42.08;101321.44;7394978;19;1840;-37
2023/09/27 00:54:45;;;;;;;;;;;;;;;23.41;42.07;101331.94;7397782;19;1828;-37
2023/09/27 00:57:14;;;;;;;;;;;;;;;23.41;42.26;101337.31;7398861;19;1160;-37
2023/09/27 00:59:42;;;;;;;;;;;;;;;23.33;42.05;101342.63;7396829;19;1786;-37
2023/09/27 01:02:10;;;;;;;;;;;;;;;23.47;41.90;101326.94;7396933;19;1455;-37
2023/09/27 01:04:39;;;;;;;;;;;;;;;23.55;41.84;101333.25;7397153;19;1466;-37
2023/09/27 01:07:07;;;;;;;;;;;;;;;23.51;41.83;101323.78;7397959;19;1681;-37
2023/09/27 01:09:39;;;;;;;;;;;;;;;23.56;41.76;101334.97;7397839;19;1419;-37
2023/09/27 01:12:08;;;;;;;;;;;;;;;23.77;41.77;101315.81;7395568;19;1840;-37
2023/09/27 01:14:36;;;;;;;;;;;;;;;23.90;41.61;101336.22;7397000;19;1712;-37
2023/09/27 01:17:11;;;;;;;;;;;;;;;23.94;41.69;101321.38;7394457;19;1555;-37
2023/09/27 01:19:40;;;;;;;;;;;;;;;24.01;41.99;101322.44;7397196;19;1702;-37
2023/09/27 01:22:08;;;;;;;;;;;;;;;23.97;41.97;101329.16;7397198;19;1610;-37
2023/09/27 01:24:40;;;;;;;;;;;;;;;23.99;42.02;101325.31;7398453;19;1467;-37
2023/09/27 01:27:12;;;;;;;;;;;;;;;23.88;42.02;101325.56;7396703;19;1475;-37
2023/09/27 01:29:40;;;;;;;;;;;;;;;23.92;42.30;101329.63;7397010;19;1825;-37
2023/09/27 01:32:08;;;;;;;;;;;;;;;23.90;42.29;101328.94;7393997;19;1864;-37
2023/09/27 01:34:37;;;;;;;;;;;;;;;23.85;42.27;101320.44;7397680;19;1432;-37
2023/09/27 01:37:07;;;;;;;;;;;;;;;23.90;42.37;101333.50;7396445;19;1617;-37
2023/09/27 01:39:35;;;;;;;;;;;;;;;23.91;42.18;101319.81;7396449;19;1556;-37
2023/09/27 01:42:06;;;;;;;;;;;;;;;23.93;42.08;101314.28;7397134;19;1439;-37
2023/09/27 01:44:34;;;;;;;;;;;;;;;23.96;42.11;101330.19;7395476;19;1325;-37
2023/09/27 01:47:03;;;;;;;;;;;;;;;23.91;42.04;101324.38;7396065;19;1475;-37
2023/09/27 01:49:31;;;;;;;;;;;;;;;23.86;42.29;101321.31;7397034;19;1470;-37
2023/09/27 01:51:59;;;;;;;;;;;;;;;23.85;42.58;101323.13;7395248;19;1855;-37
2023/09/27 01:54:28;;;;;;;;;;;;;;;23.94;42.11;101332.19;7395421;19;1719;-37
2023/09/27 01:56:56;;;;;;;;;;;;;;;23.86;42.48;101340.22;7394217;19;1408;-37
2023/09/27 01:59:27;;;;;;;;;;;;;;;23.90;42.13;101333.50;7395224;19;1940;-37
2023/09/27 02:01:55;;;;;;;;;;;;;;;23.88;42.72;101351.72;7393927;19;1617;-37
2023/09/27 02:04:24;;;;;;;;;;;;;;;23.87;42.47;101341.91;7396667;19;1508;-37
2023/09/27 02:06:52;;;;;;;;;;;;;;;23.82;42.83;101328.88;7397266;19;1345;-37
2023/09/27 02:09:20;;;;;;;;;;;;;;;23.85;42.43;101343.91;7396536;19;1591;-37
2023/09/27 02:11:48;;;;;;;;;;;;;;;23.84;42.49;101336.81;7395007;19;1841;-37
2023/09/27 02:14:17;;;;;;;;;;;;;;;23.79;42.68;101331.88;7393865;19;1483;-37
2023/09/27 02:16:48;;;;;;;;;;;;;;;23.78;42.73;101349.94;7396973;19;1095;-37
2023/09/27 02:19:16;;;;;;;;;;;;;;;23.88;42.59;101346.31;7395917;19;1660;-37
2023/09/27 02:21:44;;;;;;;;;;;;;;;23.78;42.66;101339.13;7394604;19;1534;-37
2023/09/27 02:24:12;;;;;;;;;;;;;;;23.88;42.28;101332.81;7394534;19;1779;-37
2023/09/27 02:26:41;;;;;;;;;;;;;;;23.92;42.30;101332.34;7395469;19;1332;-37
2023/09/27 02:29:10;;;;;;;;;;;;;;;23.92;42.18;101337.75;7401807;19;1431;-37
2023/09/27 02:31:38;;;;;;;;;;;;;;;23.84;42.28;101339.53;7402777;19;1859;-37
2023/09/27 02:34:09;;;;;;;;;;;;;;;23.76;42.52;101340.25;7402215;19;1367;-37
2023/09/27 02:36:37;;;;;;;;;;;;;;;23.70;42.80;101327.38;7400500;19;2592;-37
2023/09/27 02:39:06;;;;;;;;;;;;;;;23.71;42.70;101338.00;7401814;19;1308;-37
2023/09/27 02:41:35;;;;;;;;;;;;;;;23.69;42.83;101339.16;7402335;19;1582;-38
2023/09/27 02:44:03;;;;;;;;;;;;;;;23.68;42.45;101335.63;7402135;19;1447;-37
2023/09/27 02:46:32;;;;;;;;;;;;;;;23.63;42.50;101343.31;7402183;19;1775;-37
2023/09/27 02:49:00;;;;;;;;;;;;;;;23.69;42.76;101345.41;7401468;19;1390;-37
2023/09/27 02:51:31;;;;;;;;;;;;;;;23.66;42.65;101344.88;7401530;19;1865;-37
2023/09/27 02:54:00;;;;;;;;;;;;;;;23.55;42.68;101337.81;7401512;19;1177;-37
2023/09/27 02:56:28;;;;;;;;;;;;;;;23.56;42.81;101345.78;7402366;19;1716;-37
2023/09/27 02:58:56;;;;;;;;;;;;;;;23.59;42.72;101344.63;7401630;19;1834;-37
2023/09/27 03:01:25;;;;;;;;;;;;;;;23.54;42.92;101342.38;7401475;19;1525;-37
2023/09/27 03:03:55;;;;;;;;;;;;;;;23.59;43.18;101344.63;7401132;19;1534;-37
2023/09/27 03:06:24;;;;;;;;;;;;;;;23.69;43.03;101344.56;7400406;19;1212;-37
2023/09/27 03:08:55;;;;;;;;;;;;;;;23.60;43.11;101340.94;7400627;19;1240;-37
2023/09/27 03:11:23;;;;;;;;;;;;;;;23.68;43.12;101338.31;7401515;19;1880;-37
2023/09/27 03:13:51;;;;;;;;;;;;;;;23.74;42.97;101353.91;7401004;19;1250;-38
2023/09/27 03:16:20;;;;;;;;;;;;;;;23.75;42.73;101346.66;7400209;19;1356;-37
2023/09/27 03:18:48;;;;;;;;;;;;;;;23.72;43.01;101347.81;7397171;19;1334;-37
2023/09/27 03:21:17;;;;;;;;;;;;;;;23.74;42.91;101348.50;7400585;19;1312;-37
2023/09/27 03:23:45;;;;;;;;;;;;;;;23.73;42.92;101346.78;7399570;19;1288;-37
2023/09/27 03:26:16;;;;;;;;;;;;;;;23.77;42.98;101353.63;7399850;19;1366;-37
2023/09/27 03:28:44;;;;;;;;;;;;;;;23.66;43.07;101329.53;7399909;19;1265;-38
2023/09/27 03:31:13;;;;;;;;;;;;;;;23.81;42.81;101341.53;7400697;19;1856;-42
2023/09/27 03:33:41;;;;;;;;;;;;;;;23.81;42.90;101357.75;7400332;19;1241;-36
2023/09/27 03:36:11;;;;;;;;;;;;;;;23.83;42.88;101341.34;7397678;19;1319;-37
2023/09/27 03:38:40;;;;;;;;;;;;;;;23.78;42.84;101344.53;7397773;19;1304;-37
2023/09/27 03:41:10;;;;;;;;;;;;;;;23.74;42.75;101348.50;7400196;19;1301;-37
2023/09/27 03:43:42;;;;;;;;;;;;;;;23.72;42.93;101347.81;7399683;19;1644;-37
2023/09/27 03:46:11;;;;;;;;;;;;;;;23.75;42.79;101350.19;7398236;19;1272;-37
2023/09/27 03:48:40;;;;;;;;;;;;;;;23.76;42.78;101348.34;7398250;19;1488;-37
2023/09/27 03:51:08;;;;;;;;;;;;;;;23.57;43.60;101352.03;7398379;19;1494;-37
2023/09/27 03:53:36;;;;;;;;;;;;;;;23.74;43.53;101345.81;7392295;19;1837;-37
2023/09/27 03:56:05;;;;;;;;;;;;;;;23.81;43.73;101344.22;7397484;19;1562;-37
2023/09/27 03:58:33;;;;;;;;;;;;;;;23.82;43.43;101345.91;7398715;19;1600;-37
2023/09/27 04:01:04;;;;;;;;;;;;;;;23.85;43.37;101339.34;7378497;19;1655;-39
2023/09/27 04:03:32;;;;;;;;;;;;;;;23.91;42.77;101354.09;7378207;19;1309;-39
2023/09/27 04:06:01;;;;;;;;;;;;;;;23.92;43.04;101369.31;7398592;19;1320;-39
2023/09/27 04:08:29;;;;;;;;;;;;;;;23.86;42.96;101368.06;7397908;19;1802;-36
2023/09/27 04:10:57;;;;;;;;;;;;;;;23.93;42.56;101362.91;7397024;19;1609;-36
2023/09/27 04:13:26;;;;;;;;;;;;;;;23.78;43.04;101349.94;7392965;19;1846;-36
2023/09/27 04:15:54;;;;;;;;;;;;;;;23.88;42.92;101357.97;7398843;19;1333;-36
2023/09/27 04:18:25;;;;;;;;;;;;;;;24.02;43.16;101353.88;7397960;19;1459;-36
2023/09/27 04:20:53;;;;;;;;;;;;;;;24.06;43.33;101409.31;7400092;19;1577;-36
2023/09/27 04:23:21;;;;;;;;;;;;;;;24.06;44.30;101357.13;7399227;19;1707;-36
2023/09/27 04:25:50;;;;;;;;;;;;;;;24.10;44.21;101367.47;7399966;19;1458;-36
2023/09/27 04:28:18;;;;;;;;;;;;;;;24.19;44.19;101380.06;7399574;19;1501;-36
2023/09/27 04:30:46;;;;;;;;;;;;;;;24.24;44.08;101376.03;7399011;19;1218;-36
2023/09/27 04:33:15;;;;;;;;;;;;;;;24.16;44.81;101379.50;7396549;19;1909;-36
2023/09/27 04:35:47;;;;;;;;;;;;;;;24.14;45.00;101381.50;7398220;19;1463;-36
2023/09/27 04:38:16;;;;;;;;;;;;;;;24.30;44.42;101376.25;7399010;19;1392;-36
2023/09/27 04:40:44;;;;;;;;;;;;;;;24.35;44.27;101386.56;7398677;19;1293;-36
2023/09/27 04:43:12;;;;;;;;;;;;;;;24.19;45.14;101385.47;7397856;19;1962;-36
2023/09/27 04:45:41;;;;;;;;;;;;;;;24.16;45.72;101371.41;7399095;19;1648;-36
2023/09/27 04:48:09;;;;;;;;;;;;;;;24.37;45.56;101381.88;7397340;19;1562;-36
2023/09/27 04:50:39;;;;;;;;;;;;;;;24.48;45.48;101369.97;7393713;19;1917;-36
2023/09/27 04:53:10;;;;;;;;;;;;;;;24.29;46.01;101389.91;7397197;19;1852;-36
2023/09/27 04:55:39;;;;;;;;;;;;;;;24.20;46.32;101387.13;7398340;19;1251;-36
2023/09/27 04:58:07;;;;;;;;;;;;;;;24.22;46.99;101390.53;7395864;19;1592;-36
2023/09/27 05:00:36;;;;;;;;;;;;;;;23.95;44.55;101380.63;7396000;19;1662;-36
2023/09/27 05:03:05;;;;;;;;;;;;;;;23.95;44.42;101387.91;7376631;19;1249;-36
2023/09/27 05:05:33;;;;;;;;;;;;;;;23.90;43.87;101384.81;7394717;19;1659;-36
2023/09/27 05:08:02;;;;;;;;;;;;;;;23.79;43.94;101399.38;7393135;19;1624;-36
2023/09/27 05:10:33;;;;;;;;;;;;;;;24.00;43.10;101396.41;7393705;19;1535;-36
2023/09/27 05:13:01;;;;;;;;;;;;;;;24.75;41.76;101385.22;7391582;19;1847;-36
2023/09/27 05:15:29;;;;;;;;;;;;;;;25.26;40.38;101388.09;7393428;19;1653;-36
2023/09/27 05:17:58;;;;;;;;;;;;;;;24.72;41.21;101385.56;7393756;19;1431;-37
2023/09/27 05:20:26;;;;;;;;;;;;;;;24.11;41.83;101404.25;7393893;19;1341;-45
2023/09/27 05:22:55;;;;;;;;;;;;;;;23.65;42.56;101398.00;7394697;19;1309;-36
2023/09/27 05:25:23;;;;;;;;;;;;;;;23.60;42.99;101394.94;7395328;19;1207;-36
2023/09/27 05:27:56;;;;;;;;;;;;;;;23.30;42.68;101410.41;7397015;19;1315;-36
2023/09/27 05:30:24;;;;;;;;;;;;;;;22.92;43.30;101411.34;7395828;19;1617;-36
2023/09/27 05:32:53;;;;;;;;;;;;;;;22.55;43.65;101404.88;7396692;19;1854;-36
2023/09/27 05:35:21;;;;;;;;;;;;;;;22.67;43.51;101402.03;7397584;19;1555;-37
2023/09/27 05:37:50;;;;;;;;;;;;;;;22.55;43.33;101399.50;7398854;19;1821;-36
2023/09/27 05:40:18;;;;;;;;;;;;;;;22.55;43.30;101398.66;7397786;19;1719;-36
2023/09/27 05:42:46;;;;;;;;;;;;;;;22.57;43.49;101413.69;7395325;19;1226;-36
2023/09/27 05:45:17;;;;;;;;;;;;;;;22.89;43.19;101404.41;7385445;19;1352;-36
2023/09/27 05:47:46;;;;;;;;;;;;;;;23.15;42.39;101412.72;7394554;19;1419;-36
2023/09/27 05:50:14;;;;;;;;;;;;;;;23.33;42.41;101403.88;7392259;19;1351;-36
2023/09/27 05:52:44;;;;;;;;;;;;;;;23.40;42.10;101399.59;7395215;19;1846;-36
2023/09/27 05:55:13;;;;;;;;;;;;;;;23.55;41.82;101414.25;7395698;19;1432;-36
2023/09/27 05:57:41;;;;;;;;;;;;;;;23.56;41.91;101398.94;7396235;19;1700;-36
2023/09/27 06:00:22;;;;;;;;;;;;;;;23.64;41.48;101401.72;7395022;19;1947;-36
2023/09/27 06:02:54;;;;;;;;;;;;;;;23.75;41.28;101401.50;7377276;19;1570;-36
2023/09/27 06:05:23;;;;;;;;;;;;;;;23.85;41.11;101414.13;7391796;19;1530;-36
2023/09/27 06:07:52;;;;;;;;;;;;;;;23.79;41.44;101405.63;7393298;19;1408;-36
2023/09/27 06:10:22;;;;;;;;;;;;;;;23.79;41.05;101427.22;7394699;19;1229;-36
2023/09/27 06:12:50;;;;;;;;;;;;;;;23.81;41.19;101419.84;7394229;19;1843;-37
2023/09/27 06:15:20;;;;;;;;;;;;;;;23.79;40.95;101427.22;7394016;19;1588;-37
2023/09/27 06:17:48;;;;;;;;;;;;;;;23.84;40.99;101429.50;7392039;19;1644;-36
2023/09/27 06:20:22;;;;;;;;;;;;;;;23.76;40.94;101432.91;7393836;19;1605;-36
2023/09/27 06:22:52;;;;;;;;;;;;;;;23.65;40.69;101418.78;7395022;19;1586;-36
2023/09/27 06:25:23;;;;;;;;;;;;;;;23.84;40.97;101426.78;7397564;19;1066;-36
2023/09/27 06:27:52;;;;;;;;;;;;;;;23.79;40.53;101429.94;7391300;19;1704;-36
2023/09/27 06:30:20;;;;;;;;;;;;;;;23.84;40.87;101417.84;7392278;19;1634;-36
2023/09/27 06:32:48;;;;;;;;;;;;;;;23.84;40.72;101417.84;7392382;19;1969;-36
2023/09/27 06:35:19;;;;;;;;;;;;;;;23.86;40.86;101421.25;7393866;19;1553;-36
2023/09/27 06:37:48;;;;;;;;;;;;;;;23.91;40.73;101405.41;7389670;19;1495;-36
2023/09/27 06:40:19;;;;;;;;;;;;;;;23.79;41.00;101413.72;7393062;19;1667;-36
2023/09/27 06:42:47;;;;;;;;;;;;;;;23.81;40.97;101410.88;7393107;19;1404;-36
2023/09/27 06:45:16;;;;;;;;;;;;;;;23.85;40.95;101424.94;7391308;19;1351;-36
2023/09/27 06:47:45;;;;;;;;;;;;;;;23.53;40.95;101366.81;7391831;19;1442;-36
2023/09/27 06:50:14;;;;;;;;;;;;;;;24.02;40.67;101410.63;7394313;19;1580;-36
2023/09/27 06:52:45;;;;;;;;;;;;;;;23.97;41.21;101418.31;7393787;19;1849;-36
2023/09/27 06:55:16;;;;;;;;;;;;;;;24.00;41.10;101418.88;7394907;19;1653;-36
2023/09/27 06:57:45;;;;;;;;;;;;;;;24.01;41.34;101415.19;7394445;19;1443;-36
2023/09/27 07:00:18;;;;;;;;;;;;;;;23.96;41.21;101411.22;7389743;19;1707;-36
2023/09/27 07:02:47;;;;;;;;;;;;;;;24.06;41.48;101417.41;7376551;19;1432;-36
2023/09/27 07:05:15;;;;;;;;;;;;;;;24.15;41.14;101426.44;7392490;19;1569;-36
2023/09/27 07:07:47;;;;;;;;;;;;;;;24.11;41.47;101412.38;7393898;19;1375;-36
2023/09/27 07:10:15;;;;;;;;;;;;;;;24.10;41.46;101443.13;7392163;19;1738;-36
2023/09/27 07:12:43;;;;;;;;;;;;;;;24.11;41.36;101439.41;7392104;19;1844;-36
2023/09/27 07:15:13;;;;;;;;;;;;;;;24.10;41.39;101440.41;7396508;19;1645;-36
2023/09/27 07:17:43;;;;;;;;;;;;;;;24.05;41.50;101429.19;7399429;19;1612;-36
2023/09/27 07:20:20;;;;;;;;;;;;;;;24.10;41.19;101435.00;7397495;19;1372;-36
2023/09/27 07:22:52;;;;;;;;;;;;;;;24.16;41.75;101444.34;7400871;19;1041;-36
2023/09/27 07:25:21;;;;;;;;;;;;;;;24.11;41.38;101452.91;7400302;19;1561;-36
2023/09/27 07:27:50;;;;;;;;;;;;;;;24.21;41.66;101450.13;7399275;19;1677;-36
2023/09/27 07:30:23;;;;;;;;;;;;;;;24.08;41.61;101437.00;7398837;19;1519;-36
2023/09/27 07:32:52;;;;;;;;;;;;;;;24.10;41.69;101429.59;7397440;19;1845;-36
2023/09/27 07:35:21;;;;;;;;;;;;;;;24.08;41.51;101437.00;7399486;19;1376;-36
2023/09/27 07:37:52;;;;;;;;;;;;;;;24.15;41.38;101432.72;7400312;19;1655;-36
2023/09/27 07:40:20;;;;;;;;;;;;;;;24.20;41.28;101437.66;7398854;19;1775;-36
2023/09/27 07:42:50;;;;;;;;;;;;;;;24.13;41.66;101426.59;7397588;19;1391;-36
2023/09/27 07:45:21;;;;;;;;;;;;;;;24.20;41.57;101437.66;7397102;19;1677;-36
2023/09/27 07:47:50;;;;;;;;;;;;;;;24.19;41.76;101435.94;7395626;19;1841;-36
2023/09/27 07:50:18;;;;;;;;;;;;;;;24.24;41.70;101420.13;7396877;19;1871;-36
2023/09/27 07:52:47;;;;;;;;;;;;;;;24.20;41.32;101419.56;7397006;19;1850;-36
2023/09/27 07:55:21;;;;;;;;;;;;;;;24.30;41.18;101437.56;7398056;19;1490;-36
2023/09/27 07:57:49;;;;;;;;;;;;;;;24.37;41.51;101430.53;7397388;19;1496;-36
2023/09/27 08:00:19;;;;;;;;;;;;;;;24.47;41.30;101435.84;7396581;19;1953;-36
2023/09/27 08:02:50;;;;;;;;;;;;;;;24.44;41.08;101436.19;7380891;19;1610;-37
2023/09/27 08:05:19;;;;;;;;;;;;;;;24.34;41.90;101420.88;7398726;19;1446;-36
2023/09/27 08:07:48;;;;;;;;;;;;;;;24.34;41.59;101431.69;7397406;19;1375;-36
2023/09/27 08:10:20;;;;;;;;;;;;;;;24.44;41.74;101419.97;7396486;19;1447;-36
2023/09/27 08:12:49;;;;;;;;;;;;;;;24.36;41.44;101426.97;7393931;19;1842;-36
2023/09/27 08:15:17;;;;;;;;;;;;;;;24.44;41.43;101404.59;7394361;19;1590;-36
2023/09/27 08:17:46;;;;;;;;;;;;;;;24.70;41.13;101430.84;7398605;19;1434;-36
2023/09/27 08:20:14;;;;;;;;;;;;;;;24.74;40.32;101402.47;7397820;19;1795;-36
2023/09/27 08:22:42;;;;;;;;;;;;;;;24.78;40.14;101417.38;7395311;19;1748;-36
2023/09/27 08:25:14;;;;;;;;;;;;;;;24.84;39.86;101422.16;7397177;19;1376;-36
2023/09/27 08:27:50;;;;;;;;;;;;;;;24.91;40.27;101408.81;7395164;19;1394;-36
2023/09/27 08:30:18;;;;;;;;;;;;;;;24.92;40.63;101408.69;7396725;19;1671;-37
2023/09/27 08:32:46;;;;;;;;;;;;;;;24.95;40.17;101434.59;7397396;19;1535;-36
2023/09/27 08:35:15;;;;;;;;;;;;;;;24.98;40.11;101415.31;7394948;19;1325;-36
2023/09/27 08:37:44;;;;;;;;;;;;;;;25.05;39.85;101407.41;7393361;19;1347;-37
2023/09/27 08:40:15;;;;;;;;;;;;;;;25.12;39.95;101409.31;7393945;19;1388;-36
2023/09/27 08:42:46;;;;;;;;;;;;;;;25.05;40.66;101396.56;7397319;19;1461;-36
2023/09/27 08:45:15;;;;;;;;;;;;;;;25.22;40.48;101403.81;7395651;19;1652;-36
2023/09/27 08:47:44;;;;;;;;;;;;;;;25.22;40.63;101401.09;7395423;19;1452;-36
2023/09/27 08:50:14;;;;;;;;;;;;;;;25.12;40.15;101393.06;7396668;19;1581;-36
2023/09/27 08:52:45;;;;;;;;;;;;;;;25.22;40.28;101394.84;7396069;19;1614;-36
2023/09/27 08:55:13;;;;;;;;;;;;;;;25.30;40.03;101384.06;7392580;19;1867;-36
2023/09/27 08:57:45;;;;;;;;;;;;;;;25.32;40.07;101374.75;7396602;19;1699;-36
2023/09/27 09:00:20;;;;;;;;;;;;;;;25.35;40.98;101393.41;7396070;19;1677;-36
2023/09/27 09:02:52;;;;;;;;;;;;;;;25.27;40.90;101377.13;7392625;19;1500;-36
2023/09/27 09:05:20;;;;;;;;;;;;;;;25.25;40.01;101386.38;7385515;19;1451;-36
2023/09/27 09:07:50;;;;;;;;;;;;;;;25.22;40.57;101374.03;7396380;19;1369;-36
2023/09/27 09:10:19;;;;;;;;;;;;;;;25.16;41.17;101383.63;7396328;19;1364;-37
2023/09/27 09:12:48;;;;;;;;;;;;;;;25.26;41.07;101367.28;7396392;19;1574;-36
2023/09/27 09:15:30;;;;;;;;;;;;;;;25.15;42.21;101375.69;7392286;19;1834;-37
2023/09/27 09:18:00;;;;;;;;;;;;;;;25.12;40.53;101390.38;7396281;19;1553;-37
2023/09/27 09:20:48;;;;;;;;;;;;;;;25.15;41.02;101378.38;7393000;19;1367;-37
2023/09/27 09:23:29;;;;;;;;;;;;;;;25.11;41.42;101369.75;7395053;19;1461;-36
2023/09/27 09:25:58;;;;;;;;;;;;;;;25.13;41.37;101367.72;7394280;19;1328;-37
2023/09/27 09:28:27;;;;;;;;;;;;;;;25.20;40.90;101362.50;7396109;19;1172;-36
2023/09/27 09:30:58;;;;;;;;;;;;;;;25.25;39.91;101365.59;7394135;19;1649;-37
2023/09/27 09:33:28;;;;;;;;;;;;;;;25.23;40.54;101364.91;7388899;19;1962;-39
2023/09/27 09:35:57;;;;;;;;;;;;;;;25.52;40.28;101366.38;7392911;19;1671;-39
2023/09/27 09:38:26;;;;;;;;;;;;;;;25.53;39.50;101378.91;7392591;19;1329;-39
2023/09/27 09:40:56;;;;;;;;;;;;;;;25.52;39.73;101359.09;7395720;19;1529;-39
2023/09/27 09:43:31;;;;;;;;;;;;;;;25.49;39.98;101366.72;7392589;19;1313;-37
2023/09/27 09:46:04;;;;;;;;;;;;;;;25.53;39.91;101365.38;7392727;19;1514;-37
2023/09/27 09:48:34;;;;;;;;;;;;;;;25.44;41.32;101352.81;7392032;19;1561;-37
2023/09/27 09:51:06;;;;;;;;;;;;;;;25.31;41.23;101367.66;7392772;19;1774;-37
2023/09/27 09:53:35;;;;;;;;;;;;;;;25.24;41.96;101355.78;7393195;19;1861;-37
2023/09/27 09:56:05;;;;;;;;;;;;;;;25.34;41.67;101366.47;7396524;19;1325;-37
2023/09/27 09:58:37;;;;;;;;;;;;;;;25.18;41.15;101364.50;7390763;19;1625;-37
2023/09/27 10:01:08;;;;;;;;;;;;;;;25.25;42.10;101360.19;7391141;19;1422;-37
2023/09/27 10:03:37;;;;;;;;;;;;;;;25.21;40.19;101347.97;7372128;19;1471;-37
2023/09/27 10:06:05;;;;;;;;;;;;;;;25.20;41.16;101354.38;7389127;19;1509;-37
2023/09/27 10:08:38;;;;;;;;;;;;;;;25.21;40.73;101350.66;7390578;19;1296;-37
2023/09/27 10:11:08;;;;;;;;;;;;;;;25.18;40.53;101341.00;7394786;19;1317;-37
2023/09/27 10:13:37;;;;;;;;;;;;;;;25.17;40.14;101336.59;7394601;19;1842;-37
2023/09/27 10:16:09;;;;;;;;;;;;;;;25.13;40.26;101334.41;7394865;19;1331;-37
2023/09/27 10:18:41;;;;;;;;;;;;;;;25.19;40.03;101321.06;7394343;19;1532;-37
2023/09/27 10:21:12;;;;;;;;;;;;;;;25.17;40.45;101346.59;7395356;19;1541;-37
2023/09/27 10:23:57;;;;;;;;;;;;;;;25.12;39.24;101351.63;7393105;19;1383;-37
2023/09/27 10:26:33;;;;;;;;;;;;;;;25.23;38.94;101331.56;7391302;19;1478;-37
2023/09/27 10:29:12;;;;;;;;;;;;;;;25.15;39.38;101327.81;7391448;19;1344;-37
2023/09/27 10:32:06;;;;;;;;;;;;;;;24.67;39.15;101241.84;7391266;19;1422;-37
2023/09/27 10:34:41;;;;;;;;;;;;;;;25.15;39.29;101324.25;7389925;19;1850;-37
2023/09/27 10:37:09;;;;;;;;;;;;;;;25.20;37.70;101335.44;7391552;19;1476;-37
2023/09/27 10:39:39;;;;;;;;;;;;;;;25.28;36.81;101335.47;7390847;19;1568;-37
2023/09/27 10:42:08;;;;;;;;;;;;;;;25.24;36.90;101323.28;7391148;19;1954;-37
2023/09/27 10:44:40;;;;;;;;;;;;;;;25.21;36.27;101331.72;7388008;19;1527;-37
2023/09/27 10:47:13;;;;;;;;;;;;;;;25.29;37.00;101309.28;7390153;19;1503;-37
2023/09/27 10:49:43;;;;;;;;;;;;;;;25.25;36.41;101316.88;7392434;19;1335;-37
2023/09/27 10:52:18;;;;;;;;;;;;;;;25.25;36.78;101306.06;7401548;19;1467;-38
2023/09/27 10:54:46;;;;;;;;;;;;;;;25.29;36.81;101323.66;7402458;19;1853;-37
2023/09/27 10:57:15;;;;;;;;;;;;;;;25.29;36.55;101312.84;7402833;19;1786;-37
2023/09/27 10:59:46;;;;;;;;;;;;;;;25.24;36.74;101301.63;7402515;19;1798;-37
2023/09/27 11:02:16;;;;;;;;;;;;;;;25.32;36.76;101307.06;7402448;19;1672;-37
2023/09/27 11:04:46;;;;;;;;;;;;;;;25.31;36.98;101293.72;7386556;19;1478;-37
2023/09/27 11:07:14;;;;;;;;;;;;;;;25.30;37.60;101297.44;7402063;19;1416;-37
2023/09/27 11:09:46;;;;;;;;;;;;;;;25.24;36.98;101292.69;7401456;19;1376;-45
2023/09/27 11:12:23;;;;;;;;;;;;;;;25.23;37.44;101293.66;7402438;19;1414;-37
2023/09/27 11:14:51;;;;;;;;;;;;;;;25.28;37.23;101277.78;7401539;19;1864;-37
2023/09/27 11:17:25;;;;;;;;;;;;;;;25.35;37.22;101284.25;7400297;19;1222;-37
2023/09/27 11:19:53;;;;;;;;;;;;;;;25.36;38.57;101278.66;7400781;19;1385;-37
2023/09/27 11:22:28;;;;;;;;;;;;;;;25.26;38.04;101286.06;7401828;19;1553;-37
2023/09/27 11:24:56;;;;;;;;;;;;;;;25.37;37.55;101280.38;7402000;19;1594;-37
2023/09/27 11:27:25;;;;;;;;;;;;;;;25.48;37.75;101283.78;7402284;19;1660;-37
2023/09/27 11:29:54;;;;;;;;;;;;;;;25.37;37.35;101284.94;7401201;19;1625;-37
2023/09/27 11:32:25;;;;;;;;;;;;;;;25.33;37.74;101287.13;7402061;19;1707;-37
2023/09/27 11:34:57;;;;;;;;;;;;;;;25.34;38.44;101275.25;7398616;19;1849;-37
2023/09/27 11:37:25;;;;;;;;;;;;;;;25.29;37.66;101274.94;7401361;19;1352;-37
2023/09/27 11:39:55;;;;;;;;;;;;;;;25.32;37.39;101273.75;7400720;19;1426;-38
2023/09/27 11:42:24;;;;;;;;;;;;;;;25.24;37.54;101282.69;7401271;19;1481;-37
2023/09/27 11:45:03;;;;;;;;;;;;;;;25.28;37.34;101270.50;7401060;19;1273;-37
2023/09/27 11:47:34;;;;;;;;;;;;;;;25.23;37.78;101259.34;7401024;19;1378;-37
2023/09/27 11:50:03;;;;;;;;;;;;;;;25.27;37.39;101259.84;7400703;19;1489;-37
2023/09/27 11:52:31;;;;;;;;;;;;;;;25.29;37.38;101261.41;7400966;19;1257;-37
2023/09/27 11:54:59;;;;;;;;;;;;;;;25.33;38.54;101260.06;7399889;19;1926;-37
2023/09/27 11:57:27;;;;;;;;;;;;;;;25.27;37.36;101263.44;7401374;19;1894;-47
2023/09/27 11:59:56;;;;;;;;;;;;;;;25.30;38.18;101238.72;7399449;19;1648;-37
2023/09/27 12:02:24;;;;;;;;;;;;;;;25.30;37.02;101254.97;7399525;19;1719;-38
2023/09/27 12:04:55;;;;;;;;;;;;;;;25.33;37.65;101246.50;7383549;19;1412;-37
2023/09/27 12:07:23;;;;;;;;;;;;;;;25.28;37.80;101240.75;7400456;19;1702;-38
2023/09/27 12:09:52;;;;;;;;;;;;;;;25.30;37.58;101238.72;7399845;19;1519;-37
2023/09/27 12:12:20;;;;;;;;;;;;;;;25.28;38.11;101237.19;7399366;19;1419;-37
2023/09/27 12:14:49;;;;;;;;;;;;;;;25.22;36.75;101240.56;7398467;19;1853;-37
2023/09/27 12:17:17;;;;;;;;;;;;;;;25.26;36.77;101231.94;7399984;19;1483;-37
2023/09/27 12:19:45;;;;;;;;;;;;;;;25.24;37.08;101227.72;7399502;19;1388;-37
2023/09/27 12:22:16;;;;;;;;;;;;;;;25.27;37.57;101217.41;7397531;19;1504;-37
2023/09/27 12:24:45;;;;;;;;;;;;;;;25.35;38.24;101220.13;7396673;19;1617;-37
2023/09/27 12:27:13;;;;;;;;;;;;;;;25.19;37.53;101225.47;7397361;19;1633;-37
2023/09/27 12:29:41;;;;;;;;;;;;;;;25.25;37.52;101216.72;7397712;19;1555;-37
2023/09/27 12:32:10;;;;;;;;;;;;;;;25.24;38.07;101223.13;7399574;19;1443;-37
2023/09/27 12:34:38;;;;;;;;;;;;;;;25.20;38.05;101217.16;7396927;19;1866;-37
2023/09/27 12:37:06;;;;;;;;;;;;;;;25.17;37.90;101219.38;7398611;19;1399;-37
2023/09/27 12:39:38;;;;;;;;;;;;;;;25.25;38.50;101226.69;7397629;19;1628;-37
2023/09/27 12:42:06;;;;;;;;;;;;;;;25.27;38.41;101213.81;7397856;19;1730;-37
2023/09/27 12:44:34;;;;;;;;;;;;;;;25.23;38.24;101204.34;7397895;19;1605;-37
2023/09/27 12:47:03;;;;;;;;;;;;;;;25.23;37.88;101210.63;7396858;19;1650;-37
2023/09/27 12:49:31;;;;;;;;;;;;;;;25.35;37.30;101216.56;7397844;19;1672;-37
2023/09/27 12:51:59;;;;;;;;;;;;;;;25.35;36.91;101220.13;7399715;19;1372;-37
2023/09/27 12:54:27;;;;;;;;;;;;;;;25.37;36.02;101211.84;7398632;19;1850;-37
2023/09/27 12:56:59;;;;;;;;;;;;;;;25.39;36.20;101207.94;7397797;19;1597;-37
2023/09/27 12:59:27;;;;;;;;;;;;;;;25.40;34.93;101198.78;7397002;19;1736;-37